Time;durP1;ratioP1;P1;durP2;ratioP2;P2;SDS_P1;SDS_P2;PMS_P1;PMS_P2;Temp;Humidity;BMP_temperature;BMP_pressure;BME280_temperature;BME280_humidity;BME280_pressure;Samples;Min_cycle;Max_cycle;Signal;HPM_P1;HPM_P2
2022/07/07 00:02:08;;;;;;;1.20;1.20;;;;;;;;;;5060650;28;20413;-76
2022/07/07 00:04:34;;;;;;;1.20;1.20;;;;;;;;;;5068561;28;20414;-77
2022/07/07 00:07:00;;;;;;;1.30;1.30;;;;;;;;;;5047976;28;20464;-76
2022/07/07 00:09:27;;;;;;;1.20;1.20;;;;;;;;;;5057401;28;20505;-76
2022/07/07 00:11:53;;;;;;;1.20;1.20;;;;;;;;;;5067052;28;20495;-76
2022/07/07 00:14:19;;;;;;;1.20;1.20;;;;;;;;;;5063453;28;20528;-76
2022/07/07 00:16:45;;;;;;;1.20;1.20;;;;;;;;;;5056872;28;20459;-76
2022/07/07 00:19:11;;;;;;;1.27;1.27;;;;;;;;;;5067020;28;20884;-75
2022/07/07 00:21:36;;;;;;;1.30;1.30;;;;;;;;;;5058787;28;21664;-77
2022/07/07 00:24:02;;;;;;;1.30;1.30;;;;;;;;;;5055615;28;20902;-76
2022/07/07 00:26:30;;;;;;;173.80;165.97;;;;;;;;;;5072853;28;20493;-76
2022/07/07 00:28:56;;;;;;;335.67;319.15;;;;;;;;;;5040979;28;20514;-75
2022/07/07 00:31:22;;;;;;;4.47;4.30;;;;;;;;;;5060681;28;20438;-77
2022/07/07 00:33:48;;;;;;;1.60;1.60;;;;;;;;;;5069765;28;20447;-75
2022/07/07 00:36:14;;;;;;;1.60;1.60;;;;;;;;;;5070434;28;20413;-74
2022/07/07 00:38:40;;;;;;;2.40;2.30;;;;;;;;;;5070971;28;20504;-75
2022/07/07 00:41:06;;;;;;;1.30;1.30;;;;;;;;;;5071700;28;20427;-75
2022/07/07 00:43:40;;;;;;;1.30;1.30;;;;;;;;;;5074389;28;20421;-75
2022/07/07 00:46:07;;;;;;;1.20;1.20;;;;;;;;;;5067869;28;20501;-75
2022/07/07 00:48:33;;;;;;;1.20;1.20;;;;;;;;;;5033273;28;20849;-75
2022/07/07 00:50:59;;;;;;;1.30;1.30;;;;;;;;;;5053628;28;21424;-75
2022/07/07 00:53:25;;;;;;;1.25;1.25;;;;;;;;;;5071135;28;20423;-75
2022/07/07 00:55:51;;;;;;;1.30;1.30;;;;;;;;;;5062402;28;20408;-76
2022/07/07 00:58:17;;;;;;;1.30;1.30;;;;;;;;;;5051895;28;20420;-76
2022/07/07 01:00:43;;;;;;;1.30;1.30;;;;;;;;;;5041517;28;20422;-76
2022/07/07 01:03:09;;;;;;;1.20;1.20;;;;;;;;;;5059720;28;20820;-76
2022/07/07 01:05:35;;;;;;;1.20;1.20;;;;;;;;;;5051662;28;20409;-76
2022/07/07 01:08:03;;;;;;;1.30;1.30;;;;;;;;;;5054678;28;21300;-76
2022/07/07 01:10:29;;;;;;;1.30;1.30;;;;;;;;;;5049782;28;20459;-76
2022/07/07 01:12:55;;;;;;;1.30;1.30;;;;;;;;;;5053318;28;20422;-75
2022/07/07 01:15:21;;;;;;;1.30;1.30;;;;;;;;;;5069866;28;20548;-75
2022/07/07 01:17:47;;;;;;;1.30;1.30;;;;;;;;;;5061933;28;20850;-75
2022/07/07 01:20:13;;;;;;;1.30;1.30;;;;;;;;;;5065095;28;20424;-75
2022/07/07 01:22:39;;;;;;;1.23;1.23;;;;;;;;;;5069876;28;20415;-76
2022/07/07 01:25:05;;;;;;;1.30;1.30;;;;;;;;;;5070184;28;20416;-75
2022/07/07 01:27:31;;;;;;;1.20;1.20;;;;;;;;;;5067488;28;25615;-75
2022/07/07 01:29:58;;;;;;;1.27;1.27;;;;;;;;;;5058364;28;20426;-75
2022/07/07 01:32:24;;;;;;;1.20;1.20;;;;;;;;;;5057760;28;20401;-75
2022/07/07 01:34:50;;;;;;;1.30;1.30;;;;;;;;;;5064888;28;20943;-75
2022/07/07 01:37:16;;;;;;;1.20;1.20;;;;;;;;;;5054874;28;20418;-74
2022/07/07 01:39:42;;;;;;;1.20;1.20;;;;;;;;;;5052397;28;20426;-75
2022/07/07 01:42:09;;;;;;;1.30;1.30;;;;;;;;;;5060975;28;20433;-76
2022/07/07 01:44:35;;;;;;;1.30;1.30;;;;;;;;;;5063997;28;21657;-76
2022/07/07 01:47:01;;;;;;;1.30;1.30;;;;;;;;;;5045944;28;21384;-76
2022/07/07 01:49:28;;;;;;;1.30;1.30;;;;;;;;;;5063477;28;20413;-75
2022/07/07 01:51:54;;;;;;;1.30;1.30;;;;;;;;;;5063578;28;20425;-76
2022/07/07 01:54:20;;;;;;;1.30;1.30;;;;;;;;;;5069709;28;20820;-76
2022/07/07 01:56:46;;;;;;;1.20;1.20;;;;;;;;;;5067037;28;20418;-76
2022/07/07 01:59:12;;;;;;;1.30;1.30;;;;;;;;;;5060494;28;20423;-75
2022/07/07 02:01:38;;;;;;;1.30;1.30;;;;;;;;;;5070854;28;20425;-76
2022/07/07 02:04:04;;;;;;;1.30;1.30;;;;;;;;;;5060549;28;21415;-75
2022/07/07 02:06:30;;;;;;;1.40;1.40;;;;;;;;;;5061246;28;20792;-76
2022/07/07 02:08:56;;;;;;;1.30;1.30;;;;;;;;;;5067059;28;20415;-76
2022/07/07 02:11:22;;;;;;;1.30;1.30;;;;;;;;;;5065526;28;20420;-75
2022/07/07 02:13:49;;;;;;;1.30;1.30;;;;;;;;;;5035258;28;20414;-76
2022/07/07 02:16:16;;;;;;;1.30;1.30;;;;;;;;;;5064308;28;20866;-75
2022/07/07 02:18:42;;;;;;;1.40;1.40;;;;;;;;;;5060982;28;20419;-75
2022/07/07 02:21:08;;;;;;;1.50;1.50;;;;;;;;;;5061767;28;20425;-76
2022/07/07 02:23:34;;;;;;;1.50;1.50;;;;;;;;;;5063388;28;20399;-76
2022/07/07 02:26:00;;;;;;;3.78;3.63;;;;;;;;;;5058908;28;20435;-76
2022/07/07 02:28:27;;;;;;;464.17;437.88;;;;;;;;;;5053347;28;20415;-75
2022/07/07 02:30:56;;;;;;;503.15;473.90;;;;;;;;;;5057602;28;20411;-76
2022/07/07 02:33:22;;;;;;;1.10;1.10;;;;;;;;;;5051563;28;20474;-75
2022/07/07 02:35:48;;;;;;;1.20;1.20;;;;;;;;;;5056549;28;20458;-76
2022/07/07 02:38:14;;;;;;;1.20;1.20;;;;;;;;;;5054195;28;20407;-76
2022/07/07 02:40:40;;;;;;;1.10;1.10;;;;;;;;;;5066331;28;20431;-75
2022/07/07 02:43:06;;;;;;;1.00;1.00;;;;;;;;;;5066081;28;20435;-76
2022/07/07 02:45:32;;;;;;;1.10;1.10;;;;;;;;;;5067195;28;20419;-76
2022/07/07 02:47:58;;;;;;;1.10;1.10;;;;;;;;;;5052103;28;20415;-75
2022/07/07 02:50:24;;;;;;;1.13;1.13;;;;;;;;;;5061643;28;21411;-76
2022/07/07 02:52:49;;;;;;;1.20;1.20;;;;;;;;;;5066684;28;20425;-76
2022/07/07 02:55:15;;;;;;;1.10;1.10;;;;;;;;;;5061589;28;20430;-75
2022/07/07 02:57:41;;;;;;;1.00;1.00;;;;;;;;;;5061095;28;20430;-75
2022/07/07 03:00:08;;;;;;;1.10;1.10;;;;;;;;;;5041820;28;20426;-76
2022/07/07 03:02:34;;;;;;;1.20;1.20;;;;;;;;;;5046482;28;20414;-75
2022/07/07 03:05:00;;;;;;;1.20;1.20;;;;;;;;;;5059640;28;20987;-76
2022/07/07 03:07:26;;;;;;;1.20;1.20;;;;;;;;;;5045373;28;20395;-76
2022/07/07 03:09:52;;;;;;;1.20;1.20;;;;;;;;;;5044228;28;20864;-76
2022/07/07 03:12:18;;;;;;;1.20;1.20;;;;;;;;;;5051975;28;20411;-76
2022/07/07 03:14:44;;;;;;;1.20;1.20;;;;;;;;;;5066618;28;20402;-76
2022/07/07 03:17:09;;;;;;;1.20;1.20;;;;;;;;;;5066470;28;20491;-76
2022/07/07 03:19:35;;;;;;;1.20;1.20;;;;;;;;;;5054012;28;20415;-76
2022/07/07 03:22:02;;;;;;;1.10;1.10;;;;;;;;;;5058105;28;20416;-76
2022/07/07 03:24:29;;;;;;;1.17;1.17;;;;;;;;;;5055587;28;20449;-76
2022/07/07 03:26:55;;;;;;;1.20;1.20;;;;;;;;;;5062099;28;20466;-76
2022/07/07 03:29:21;;;;;;;1.10;1.10;;;;;;;;;;5057186;28;20766;-76
2022/07/07 03:31:47;;;;;;;1.20;1.20;;;;;;;;;;5024611;28;20404;-76
2022/07/07 03:34:13;;;;;;;1.20;1.20;;;;;;;;;;5070860;28;20475;-76
2022/07/07 03:36:39;;;;;;;1.10;1.10;;;;;;;;;;5066057;28;20410;-76
2022/07/07 03:39:05;;;;;;;1.20;1.20;;;;;;;;;;5063167;28;20423;-76
2022/07/07 03:41:31;;;;;;;1.20;1.20;;;;;;;;;;5061382;28;20527;-76
2022/07/07 03:43:57;;;;;;;1.10;1.10;;;;;;;;;;5061523;28;20437;-76
2022/07/07 03:46:23;;;;;;;1.10;1.10;;;;;;;;;;5065401;28;20421;-76
2022/07/07 03:48:49;;;;;;;1.10;1.10;;;;;;;;;;5057520;28;20411;-76
2022/07/07 03:51:15;;;;;;;1.20;1.20;;;;;;;;;;5059763;28;20518;-75
2022/07/07 03:53:41;;;;;;;1.10;1.10;;;;;;;;;;5067005;28;20895;-76
2022/07/07 03:56:07;;;;;;;1.20;1.20;;;;;;;;;;5068049;28;20499;-76
2022/07/07 03:58:33;;;;;;;1.07;1.07;;;;;;;;;;5068018;28;20409;-76
2022/07/07 04:01:00;;;;;;;1.10;1.10;;;;;;;;;;5063514;28;20426;-76
2022/07/07 04:03:26;;;;;;;1.10;1.10;;;;;;;;;;5073203;28;21506;-75
2022/07/07 04:05:52;;;;;;;1.10;1.10;;;;;;;;;;5066356;28;20419;-76
2022/07/07 04:08:17;;;;;;;1.20;1.20;;;;;;;;;;5043711;28;20410;-76
2022/07/07 04:10:43;;;;;;;1.13;1.13;;;;;;;;;;5049632;28;20450;-76
2022/07/07 04:13:09;;;;;;;1.10;1.10;;;;;;;;;;5031872;28;20488;-76
2022/07/07 04:15:35;;;;;;;1.13;1.13;;;;;;;;;;5061352;28;20572;-76
2022/07/07 04:18:02;;;;;;;1.10;1.10;;;;;;;;;;5062396;28;20405;-76
2022/07/07 04:20:29;;;;;;;1.20;1.20;;;;;;;;;;5063608;28;20951;-75
2022/07/07 04:22:55;;;;;;;1.10;1.10;;;;;;;;;;5050166;28;20498;-75
2022/07/07 04:25:21;;;;;;;1.20;1.20;;;;;;;;;;5058260;28;20415;-75
2022/07/07 04:27:47;;;;;;;1.10;1.10;;;;;;;;;;5064294;28;20490;-75
2022/07/07 04:30:13;;;;;;;1.10;1.10;;;;;;;;;;5067694;28;20446;-75
2022/07/07 04:32:39;;;;;;;1.02;1.02;;;;;;;;;;5053900;28;20459;-74
2022/07/07 04:35:05;;;;;;;1.10;1.10;;;;;;;;;;5067766;28;20414;-75
2022/07/07 04:37:31;;;;;;;1.10;1.10;;;;;;;;;;5045020;28;20629;-75
2022/07/07 04:39:57;;;;;;;1.10;1.10;;;;;;;;;;5056708;28;20432;-74
2022/07/07 04:42:23;;;;;;;1.20;1.20;;;;;;;;;;5067371;28;20484;-73
2022/07/07 04:44:49;;;;;;;1.10;1.10;;;;;;;;;;5052840;28;20427;-75
2022/07/07 04:47:15;;;;;;;1.10;1.10;;;;;;;;;;5052115;28;20404;-75
2022/07/07 04:49:41;;;;;;;1.10;1.10;;;;;;;;;;5061902;28;20481;-75
2022/07/07 04:52:07;;;;;;;1.10;1.10;;;;;;;;;;5052302;28;20423;-74
2022/07/07 04:54:33;;;;;;;1.20;1.20;;;;;;;;;;5047886;28;20403;-73
2022/07/07 04:56:59;;;;;;;1.20;1.20;;;;;;;;;;5060748;28;20420;-74
2022/07/07 04:59:25;;;;;;;1.20;1.20;;;;;;;;;;5055356;28;20454;-74
2022/07/07 05:01:51;;;;;;;1.10;1.10;;;;;;;;;;5042472;28;20430;-73
2022/07/07 05:04:17;;;;;;;1.20;1.20;;;;;;;;;;5044760;28;20838;-74
2022/07/07 05:06:43;;;;;;;1.10;1.10;;;;;;;;;;5031640;28;21031;-74
2022/07/07 05:09:09;;;;;;;1.10;1.10;;;;;;;;;;5029388;28;20814;-74
2022/07/07 05:11:36;;;;;;;1.10;1.10;;;;;;;;;;5012765;28;20561;-75
2022/07/07 05:14:02;;;;;;;1.00;1.00;;;;;;;;;;5022955;28;20420;-74
2022/07/07 05:16:29;;;;;;;1.10;1.10;;;;;;;;;;5026476;28;20413;-76
2022/07/07 05:18:55;;;;;;;1.10;1.10;;;;;;;;;;5005806;28;20936;-75
2022/07/07 05:21:21;;;;;;;1.15;1.15;;;;;;;;;;5029983;28;20442;-75
2022/07/07 05:23:46;;;;;;;1.10;1.10;;;;;;;;;;5032038;28;20972;-75
2022/07/07 05:26:12;;;;;;;1.20;1.20;;;;;;;;;;5038300;28;20418;-75
2022/07/07 05:28:41;;;;;;;1.20;1.20;;;;;;;;;;5005569;28;20419;-75
2022/07/07 05:31:10;;;;;;;1.17;1.17;;;;;;;;;;5023797;28;20424;-76
2022/07/07 05:33:37;;;;;;;1.10;1.10;;;;;;;;;;5027607;28;20890;-74
2022/07/07 05:36:03;;;;;;;1.10;1.10;;;;;;;;;;5019903;28;20416;-75
2022/07/07 05:38:29;;;;;;;1.15;1.15;;;;;;;;;;5023585;28;20452;-75
2022/07/07 05:40:55;;;;;;;1.20;1.20;;;;;;;;;;5033288;28;20499;-75
2022/07/07 05:43:21;;;;;;;1.15;1.15;;;;;;;;;;5026002;28;20420;-74
2022/07/07 05:45:47;;;;;;;;;;;;;;;;;;4996667;28;20440;-74
2022/07/07 05:48:13;;;;;;;1.20;1.20;;;;;;;;;;4999165;28;20446;-74
2022/07/07 05:50:39;;;;;;;1.15;1.15;;;;;;;;;;5004686;28;20563;-74
2022/07/07 05:53:05;;;;;;;1.13;1.13;;;;;;;;;;5002219;28;20435;-74
2022/07/07 05:55:31;;;;;;;;;;;;;;;;;;5013106;28;20673;-75
2022/07/07 05:57:57;;;;;;;;;;;;;;;;;;5011692;28;20502;-75
2022/07/07 06:00:24;;;;;;;;;;;;;;;;;;5018072;28;20953;-73
2022/07/07 06:02:50;;;;;;;;;;;;;;;;;;5034005;28;20428;-75
2022/07/07 06:05:16;;;;;;;;;;;;;;;;;;5051570;28;20496;-75
2022/07/07 06:07:42;;;;;;;;;;;;;;;;;;5044803;28;25075;-75
2022/07/07 06:10:10;;;;;;;;;;;;;;;;;;5040687;28;20441;-75
2022/07/07 06:12:37;;;;;;;;;;;;;;;;;;5022305;28;22816;-76
2022/07/07 06:15:03;;;;;;;;;;;;;;;;;;5036519;28;20439;-75
2022/07/07 06:17:29;;;;;;;;;;;;;;;;;;5046508;28;20464;-75
2022/07/07 06:19:54;;;;;;;;;;;;;;;;;;5045503;28;20473;-75
2022/07/07 06:22:20;;;;;;;;;;;;;;;;;;5042270;28;20438;-75
2022/07/07 06:24:46;;;;;;;;;;;;;;;;;;5034617;28;20429;-75
2022/07/07 06:27:12;;;;;;;;;;;;;;;;;;5028166;28;20491;-75
2022/07/07 06:29:38;;;;;;;;;;;;;;;;;;5047423;28;20433;-74
2022/07/07 06:32:04;;;;;;;;;;;;;;;;;;5034001;28;20827;-74
2022/07/07 06:34:30;;;;;;;;;;;;;;;;;;5038261;28;20421;-75
2022/07/07 06:36:55;;;;;;;;;;;;;;;;;;5026878;28;20455;-74
2022/07/07 06:39:21;;;;;;;;;;;;;;;;;;5034739;28;25120;-74
2022/07/07 06:41:47;;;;;;;;;;;;;;;;;;5037871;28;25208;-74
2022/07/07 06:44:13;;;;;;;;;;;;;;;;;;5051964;28;20417;-74
2022/07/07 06:46:42;;;;;;;;;;;;;;;;;;5047742;28;20432;-75
2022/07/07 06:49:08;;;;;;;;;;;;;;;;;;5047575;28;20428;-74
2022/07/07 06:51:34;;;;;;;;;;;;;;;;;;5051234;28;25172;-74
2022/07/07 06:54:00;;;;;;;;;;;;;;;;;;5049658;28;20620;-74
2022/07/07 06:56:25;;;;;;;;;;;;;;;;;;5053375;28;20476;-74
2022/07/07 06:58:51;;;;;;;;;;;;;;;;;;5044009;28;20451;-74
2022/07/07 07:01:17;;;;;;;;;;;;;;;;;;5047844;28;20479;-73
2022/07/07 07:03:43;;;;;;;;;;;;;;;;;;5039594;28;25110;-74
2022/07/07 07:06:09;;;;;;;;;;;;;;;;;;5050698;28;25083;-74
2022/07/07 07:08:35;;;;;;;;;;;;;;;;;;5041958;28;20430;-73
2022/07/07 07:11:01;;;;;;;;;;;;;;;;;;5051310;28;20494;-74
2022/07/07 07:13:27;;;;;;;;;;;;;;;;;;5056887;28;20916;-74
2022/07/07 07:15:53;;;;;;;;;;;;;;;;;;5048033;28;20449;-73
2022/07/07 07:18:19;;;;;;;;;;;;;;;;;;5049073;28;20843;-74
2022/07/07 07:20:45;;;;;;;;;;;;;;;;;;5038646;28;20447;-73
2022/07/07 07:23:11;;;;;;;;;;;;;;;;;;5051585;28;20452;-73
2022/07/07 07:25:36;;;;;;;;;;;;;;;;;;5044173;28;20535;-73
2022/07/07 07:28:02;;;;;;;;;;;;;;;;;;5038507;28;20244;-72
2022/07/07 07:30:28;;;;;;;;;;;;;;;;;;5038206;28;25155;-73
2022/07/07 07:32:54;;;;;;;;;;;;;;;;;;5058025;28;21376;-72
2022/07/07 07:35:20;;;;;;;;;;;;;;;;;;5058111;28;20424;-73
2022/07/07 07:37:46;;;;;;;;;;;;;;;;;;5054658;28;20463;-73
2022/07/07 07:40:12;;;;;;;;;;;;;;;;;;5062720;28;25127;-72
2022/07/07 07:42:38;;;;;;;;;;;;;;;;;;5052585;28;25095;-74
2022/07/07 07:45:10;;;;;;;;;;;;;;;;;;5055919;28;20433;-73
2022/07/07 07:47:36;;;;;;;;;;;;;;;;;;5051548;28;25112;-74
2022/07/07 07:50:02;;;;;;;;;;;;;;;;;;5054281;28;25136;-74
2022/07/07 07:52:28;;;;;;;;;;;;;;;;;;5054777;28;20433;-72
2022/07/07 07:54:53;;;;;;;;;;;;;;;;;;5058147;28;20470;-72
2022/07/07 07:57:19;;;;;;;;;;;;;;;;;;5052141;28;20447;-73
2022/07/07 07:59:45;;;;;;;;;;;;;;;;;;5043461;28;20457;-73
2022/07/07 08:02:11;;;;;;;;;;;;;;;;;;5055824;28;20435;-73
2022/07/07 08:04:37;;;;;;;;;;;;;;;;;;5040062;28;25149;-73
2022/07/07 08:07:03;;;;;;;;;;;;;;;;;;5054362;28;26181;-73
2022/07/07 08:09:29;;;;;;;;;;;;;;;;;;5051694;28;25136;-73
2022/07/07 08:11:54;;;;;;;;;;;;;;;;;;5051428;28;20416;-73
2022/07/07 08:14:21;;;;;;;;;;;;;;;;;;5054751;28;20989;-73
2022/07/07 08:16:47;;;;;;;;;;;;;;;;;;5049307;28;20546;-73
2022/07/07 08:19:17;;;;;;;;;;;;;;;;;;5054321;28;20512;-73
2022/07/07 08:21:46;;;;;;;;;;;;;;;;;;5056330;28;20475;-73
2022/07/07 08:24:12;;;;;;;;;;;;;;;;;;5045335;28;20815;-73
2022/07/07 08:26:37;;;;;;;;;;;;;;;;;;5047800;28;20230;-73
2022/07/07 08:29:03;;;;;;;;;;;;;;;;;;5046144;28;20234;-73
2022/07/07 08:31:30;;;;;;;;;;;;;;;;;;5046795;28;25120;-73
2022/07/07 08:33:56;;;;;;;;;;;;;;;;;;5056172;28;25065;-72
2022/07/07 08:36:22;;;;;;;;;;;;;;;;;;5062830;28;25199;-73
2022/07/07 08:38:47;;;;;;;;;;;;;;;;;;5066388;28;25145;-73
2022/07/07 08:41:15;;;;;;;;;;;;;;;;;;5083545;28;25152;-72
2022/07/07 08:43:41;;;;;;;;;;;;;;;;;;5067636;28;26198;-73
2022/07/07 08:46:06;;;;;;;;;;;;;;;;;;5062872;28;25123;-73
2022/07/07 08:48:32;;;;;;;;;;;;;;;;;;5060776;28;25080;-74
2022/07/07 08:50:59;;;;;;;;;;;;;;;;;;5065140;28;25072;-74
2022/07/07 08:53:25;;;;;;;;;;;;;;;;;;5066500;28;25095;-73
2022/07/07 08:55:51;;;;;;;;;;;;;;;;;;5061130;28;25109;-73
2022/07/07 08:58:18;;;;;;;;;;;;;;;;;;5062265;28;25070;-73
2022/07/07 09:00:44;;;;;;;;;;;;;;;;;;5063121;28;20247;-72
2022/07/07 09:03:10;;;;;;;;;;;;;;;;;;5059160;28;25112;-72
2022/07/07 09:05:39;;;;;;;;;;;;;;;;;;5077099;28;25107;-73
2022/07/07 09:08:05;;;;;;;;;;;;;;;;;;5069954;28;25149;-73
2022/07/07 09:10:31;;;;;;;;;;;;;;;;;;5063202;28;20007;-72
2022/07/07 09:12:57;;;;;;;;;;;;;;;;;;5075658;28;20707;-72
2022/07/07 09:15:23;;;;;;;;;;;;;;;;;;5076614;28;20375;-73
2022/07/07 09:17:49;;;;;;;;;;;;;;;;;;5074206;28;19924;-72
2022/07/07 09:20:14;;;;;;;;;;;;;;;;;;5070380;28;19926;-72
2022/07/07 09:22:40;;;;;;;;;;;;;;;;;;5072280;28;19962;-72
2022/07/07 09:25:07;;;;;;;;;;;;;;;;;;5067495;28;19925;-71
2022/07/07 09:27:33;;;;;;;;;;;;;;;;;;5069584;28;19965;-73
2022/07/07 09:29:59;;;;;;;;;;;;;;;;;;5072359;28;25089;-72
2022/07/07 09:32:25;;;;;;;;;;;;;;;;;;5051614;28;25063;-73
2022/07/07 09:34:51;;;;;;;;;;;;;;;;;;5065954;28;25080;-73
2022/07/07 09:40:02;;;;;;;;;;;;;;;;;;5066180;28;20452;-73
2022/07/07 09:42:29;;;;;;;;;;;;;;;;;;5064653;28;20912;-72
2022/07/07 09:44:54;;;;;;;;;;;;;;;;;;5062411;28;20228;-72
2022/07/07 09:47:20;;;;;;;;;;;;;;;;;;5063709;28;20432;-72
2022/07/07 09:49:46;;;;;;;;;;;;;;;;;;5055490;28;25112;-73
2022/07/07 09:52:12;;;;;;;;;;;;;;;;;;5061064;28;25164;-72
2022/07/07 09:54:38;;;;;;;;;;;;;;;;;;5061243;28;25063;-72
2022/07/07 09:57:04;;;;;;;;;;;;;;;;;;5059454;28;25071;-72
2022/07/07 09:59:30;;;;;;;;;;;;;;;;;;5059776;28;20421;-72
2022/07/07 10:01:56;;;;;;;;;;;;;;;;;;5062927;28;25153;-72
2022/07/07 10:04:22;;;;;;;;;;;;;;;;;;5055568;28;20434;-73
2022/07/07 10:06:48;;;;;;;;;;;;;;;;;;5064084;28;20536;-73
2022/07/07 10:09:14;;;;;;;;;;;;;;;;;;5061025;28;25195;-72
2022/07/07 10:11:40;;;;;;;;;;;;;;;;;;5066600;28;20400;-74
2022/07/07 10:14:05;;;;;;;;;;;;;;;;;;5069888;28;20549;-73
2022/07/07 10:16:31;;;;;;;;;;;;;;;;;;5071647;28;19912;-73
2022/07/07 10:18:57;;;;;;;;;;;;;;;;;;5060131;28;25199;-74
2022/07/07 10:21:23;;;;;;;;;;;;;;;;;;5062939;28;25111;-74
2022/07/07 10:23:49;;;;;;;;;;;;;;;;;;5065797;28;25103;-74
2022/07/07 10:26:15;;;;;;;;;;;;;;;;;;5047003;28;25098;-73
2022/07/07 10:28:41;;;;;;;;;;;;;;;;;;5066250;28;25085;-73
2022/07/07 10:31:07;;;;;;;;;;;;;;;;;;5048399;28;20310;-74
2022/07/07 10:33:33;;;;;;;;;;;;;;;;;;5060744;28;25151;-73
2022/07/07 10:35:59;;;;;;;;;;;;;;;;;;5077084;28;20014;-73
2022/07/07 10:38:26;;;;;;;;;;;;;;;;;;5066889;28;19920;-74
2022/07/07 10:40:52;;;;;;;;;;;;;;;;;;5071669;28;20392;-74
2022/07/07 10:43:18;;;;;;;;;;;;;;;;;;5070426;28;19923;-73
2022/07/07 10:45:44;;;;;;;;;;;;;;;;;;5072165;28;19912;-74
2022/07/07 10:48:10;;;;;;;;;;;;;;;;;;5058101;28;20014;-74
2022/07/07 10:50:36;;;;;;;;;;;;;;;;;;5067181;28;20003;-74
2022/07/07 10:53:02;;;;;;;;;;;;;;;;;;5068304;28;19927;-74
2022/07/07 10:55:28;;;;;;;;;;;;;;;;;;5065796;28;19958;-72
2022/07/07 10:57:54;;;;;;;;;;;;;;;;;;5068676;28;20459;-73
2022/07/07 11:00:20;;;;;;;;;;;;;;;;;;5064278;28;20023;-72
2022/07/07 11:02:49;;;;;;;;;;;;;;;;;;5069309;28;20013;-73
2022/07/07 11:05:15;;;;;;;;;;;;;;;;;;5055938;28;19921;-74
2022/07/07 11:07:41;;;;;;;;;;;;;;;;;;5056547;28;19917;-73
2022/07/07 11:10:06;;;;;;;;;;;;;;;;;;5052875;28;19923;-73
2022/07/07 11:12:32;;;;;;;;;;;;;;;;;;5053813;28;20054;-72
2022/07/07 11:14:58;;;;;;;;;;;;;;;;;;5057946;28;19920;-73
2022/07/07 11:17:24;;;;;;;;;;;;;;;;;;5054784;28;20838;-73
2022/07/07 11:19:50;;;;;;;;;;;;;;;;;;5055739;28;19912;-72
2022/07/07 11:22:16;;;;;;;;;;;;;;;;;;5038484;28;20015;-73
2022/07/07 11:24:42;;;;;;;;;;;;;;;;;;5057841;28;19915;-73
2022/07/07 11:27:07;;;;;;;;;;;;;;;;;;5055698;28;20366;-73
2022/07/07 11:29:33;;;;;;;;;;;;;;;;;;5047933;28;19920;-72
2022/07/07 11:31:59;;;;;;;;;;;;;;;;;;5050225;28;20015;-73
2022/07/07 11:34:25;;;;;;;;;;;;;;;;;;5053103;28;19920;-72
2022/07/07 11:36:51;;;;;;;;;;;;;;;;;;5057769;28;19995;-73
2022/07/07 11:39:17;;;;;;;;;;;;;;;;;;5069796;28;19927;-73
2022/07/07 11:41:43;;;;;;;;;;;;;;;;;;5055425;28;20008;-73
2022/07/07 11:44:08;;;;;;;;;;;;;;;;;;5058603;28;20354;-73
2022/07/07 11:46:34;;;;;;;;;;;;;;;;;;5054953;28;19920;-72
2022/07/07 11:49:00;;;;;;;;;;;;;;;;;;5051219;28;19912;-73
2022/07/07 11:51:26;;;;;;;;;;;;;;;;;;5043141;28;19917;-72
2022/07/07 11:53:52;;;;;;;;;;;;;;;;;;5049160;28;19912;-73
2022/07/07 11:56:18;;;;;;;;;;;;;;;;;;5056676;28;20377;-73
2022/07/07 11:58:44;;;;;;;;;;;;;;;;;;5048011;28;19920;-74
2022/07/07 12:01:10;;;;;;;;;;;;;;;;;;5049190;28;19990;-74
2022/07/07 12:03:35;;;;;;;;;;;;;;;;;;5052201;28;19924;-74
2022/07/07 12:06:01;;;;;;;;;;;;;;;;;;5052718;28;20068;-74
2022/07/07 12:08:27;;;;;;;;;;;;;;;;;;5055942;28;19916;-74
2022/07/07 12:10:53;;;;;;;;;;;;;;;;;;5064869;28;19925;-73
2022/07/07 12:13:19;;;;;;;;;;;;;;;;;;5060006;28;19916;-72
2022/07/07 12:15:46;;;;;;;;;;;;;;;;;;5056147;28;19927;-74
2022/07/07 12:18:11;;;;;;;;;;;;;;;;;;5056972;28;20113;-73
2022/07/07 12:20:37;;;;;;;;;;;;;;;;;;5061615;28;20015;-74
2022/07/07 12:23:03;;;;;;;;;;;;;;;;;;5059339;28;20325;-73
2022/07/07 12:25:29;;;;;;;;;;;;;;;;;;5057417;28;19923;-73
2022/07/07 12:27:55;;;;;;;;;;;;;;;;;;5058860;28;19966;-73
2022/07/07 12:30:21;;;;;;;;;;;;;;;;;;5062298;28;19943;-73
2022/07/07 12:32:47;;;;;;;;;;;;;;;;;;5056548;28;19912;-74
2022/07/07 12:35:13;;;;;;;;;;;;;;;;;;5051583;28;20030;-73
2022/07/07 12:37:38;;;;;;;;;;;;;;;;;;5058025;28;19918;-73
2022/07/07 12:40:09;;;;;;;;;;;;;;;;;;5049327;28;20163;-74
2022/07/07 12:42:35;;;;;;;;;;;;;;;;;;5057480;28;19916;-74
2022/07/07 12:45:01;;;;;;;;;;;;;;;;;;5034483;28;19954;-73
2022/07/07 12:47:27;;;;;;;;;;;;;;;;;;5060046;28;19916;-74
2022/07/07 12:49:53;;;;;;;;;;;;;;;;;;5054549;28;20440;-73
2022/07/07 12:52:19;;;;;;;;;;;;;;;;;;5051384;28;19927;-73
2022/07/07 12:54:45;;;;;;;;;;;;;;;;;;5050283;28;19916;-73
2022/07/07 12:57:12;;;;;;;;;;;;;;;;;;5052459;28;20006;-73
2022/07/07 12:59:38;;;;;;;;;;;;;;;;;;5048719;28;19921;-74
2022/07/07 13:02:04;;;;;;;;;;;;;;;;;;5049030;28;19920;-73
2022/07/07 13:04:29;;;;;;;;;;;;;;;;;;5042054;28;19983;-74
2022/07/07 13:06:55;;;;;;;;;;;;;;;;;;5034974;28;19971;-74
2022/07/07 13:09:21;;;;;;;;;;;;;;;;;;5034195;28;19912;-75
2022/07/07 13:11:50;;;;;;;;;;;;;;;;;;5033354;28;20011;-75
2022/07/07 13:14:16;;;;;;;;;;;;;;;;;;5033672;28;20744;-74
2022/07/07 13:16:42;;;;;;;;;;;;;;;;;;5028851;28;19920;-74
2022/07/07 13:19:08;;;;;;;;;;;;;;;;;;5032142;28;20373;-74
2022/07/07 13:21:34;;;;;;;;;;;;;;;;;;5034335;28;19966;-73
2022/07/07 13:24:00;;;;;;;;;;;;;;;;;;5032382;28;19943;-73
2022/07/07 13:26:26;;;;;;;;;;;;;;;;;;5031596;28;19916;-73
2022/07/07 13:28:51;;;;;;;;;;;;;;;;;;5031868;28;22537;-74
2022/07/07 13:31:17;;;;;;;;;;;;;;;;;;5029941;28;19917;-74
2022/07/07 13:33:43;;;;;;;;;;;;;;;;;;5035705;28;19920;-74
2022/07/07 13:36:09;;;;;;;;;;;;;;;;;;5034539;28;19921;-74
2022/07/07 13:38:35;;;;;;;;;;;;;;;;;;5028682;28;19932;-74
2022/07/07 13:41:01;;;;;;;;;;;;;;;;;;5024994;28;19928;-74
2022/07/07 13:43:27;;;;;;;;;;;;;;;;;;5033680;28;19917;-74
2022/07/07 13:45:53;;;;;;;;;;;;;;;;;;5037749;28;19919;-75
2022/07/07 13:48:18;;;;;;;;;;;;;;;;;;5018817;28;19921;-75
2022/07/07 13:50:44;;;;;;;;;;;;;;;;;;5032257;28;19913;-74
2022/07/07 13:53:10;;;;;;;;;;;;;;;;;;5031330;28;19962;-74
2022/07/07 13:55:36;;;;;;;;;;;;;;;;;;5031400;28;19999;-74
2022/07/07 13:58:02;;;;;;;;;;;;;;;;;;5029188;28;24110;-74
2022/07/07 14:00:28;;;;;;;;;;;;;;;;;;5026444;28;25112;-74
2022/07/07 14:02:54;;;;;;;;;;;;;;;;;;5033843;28;25072;-73
2022/07/07 14:05:20;;;;;;;;;;;;;;;;;;5056141;28;20309;-73
2022/07/07 14:07:46;;;;;;;;;;;;;;;;;;5055868;28;19916;-74
2022/07/07 14:10:12;;;;;;;;;;;;;;;;;;5057592;28;20789;-73
2022/07/07 14:12:38;;;;;;;;;;;;;;;;;;5061603;28;19915;-73
2022/07/07 14:15:04;;;;;;;;;;;;;;;;;;5041184;28;19964;-74
2022/07/07 14:17:29;;;;;;;;;;;;;;;;;;5048864;28;20397;-74
2022/07/07 14:19:55;;;;;;;;;;;;;;;;;;5053161;28;19920;-74
2022/07/07 14:22:21;;;;;;;;;;;;;;;;;;5054213;28;19912;-74
2022/07/07 14:24:47;;;;;;;;;;;;;;;;;;5054275;28;20019;-73
2022/07/07 14:27:13;;;;;;;;;;;;;;;;;;5052946;28;19931;-73
2022/07/07 14:29:39;;;;;;;;;;;;;;;;;;5051835;28;19921;-74
2022/07/07 14:32:05;;;;;;;;;;;;;;;;;;5059282;28;19920;-74
2022/07/07 14:34:31;;;;;;;;;;;;;;;;;;5051564;28;20023;-74
2022/07/07 14:36:57;;;;;;;;;;;;;;;;;;5057215;28;20941;-73
2022/07/07 14:39:23;;;;;;;;;;;;;;;;;;5053395;28;24072;-74
2022/07/07 14:41:49;;;;;;;;;;;;;;;;;;5052276;28;20292;-75
2022/07/07 14:44:15;;;;;;;;;;;;;;;;;;5052949;28;24090;-72
2022/07/07 14:46:40;;;;;;;;;;;;;;;;;;5050173;28;25069;-73
2022/07/07 14:49:06;;;;;;;;;;;;;;;;;;5055232;28;25439;-74
2022/07/07 14:51:32;;;;;;;;;;;;;;;;;;5036854;28;19916;-74
2022/07/07 14:53:58;;;;;;;;;;;;;;;;;;5056646;28;25083;-74
2022/07/07 14:56:24;;;;;;;;;;;;;;;;;;5057453;28;25054;-74
2022/07/07 14:58:50;;;;;;;;;;;;;;;;;;5050369;28;25096;-73
2022/07/07 15:01:16;;;;;;;;;;;;;;;;;;5052545;28;24073;-74
2022/07/07 15:03:42;;;;;;;;;;;;;;;;;;5056357;28;25134;-74
2022/07/07 15:06:07;;;;;;;;;;;;;;;;;;5052022;28;25065;-74
2022/07/07 15:08:33;;;;;;;;;;;;;;;;;;5036453;28;25087;-73
2022/07/07 15:10:59;;;;;;;;;;;;;;;;;;5055180;28;25065;-74
2022/07/07 15:13:25;;;;;;;;;;;;;;;;;;5059125;28;25095;-74
2022/07/07 15:15:52;;;;;;;;;;;;;;;;;;5057238;28;25096;-74
2022/07/07 15:18:17;;;;;;;;;;;;;;;;;;5057436;28;25148;-72
2022/07/07 15:20:43;;;;;;;;;;;;;;;;;;5048126;28;25087;-72
2022/07/07 15:23:09;;;;;;;;;;;;;;;;;;5054077;28;20433;-74
2022/07/07 15:25:37;;;;;;;;;;;;;;;;;;5049988;28;25097;-73
2022/07/07 15:28:03;;;;;;;;;;;;;;;;;;5056425;28;20504;-75
2022/07/07 15:30:29;;;;;;;;;;;;;;;;;;5049279;28;25093;-74
2022/07/07 15:32:54;;;;;;;;;;;;;;;;;;5050883;28;25132;-74
2022/07/07 15:35:20;;;;;;;;;;;;;;;;;;5056803;28;19912;-74
2022/07/07 15:37:46;;;;;;;;;;;;;;;;;;5057825;28;19923;-74
2022/07/07 15:40:12;;;;;;;;;;;;;;;;;;5055174;28;19928;-75
2022/07/07 15:42:38;;;;;;;;;;;;;;;;;;5059802;28;19913;-74
2022/07/07 15:45:05;;;;;;;;;;;;;;;;;;5028111;28;19927;-75
2022/07/07 15:47:30;;;;;;;;;;;;;;;;;;5059112;28;19920;-75
2022/07/07 15:49:56;;;;;;;;;;;;;;;;;;5058091;28;20030;-74
2022/07/07 15:52:22;;;;;;;;;;;;;;;;;;5062068;28;20015;-74